Worth, West Virginia
Current Conditions -  °F | °C
As of 5:52 PM on Wednesday 22 Oct 2014 (Local Time) from KBLF Reporting Station
Overcast Overcast  
Wind Chill: 40°   Ceiling: 700
Heat Index: 44°   Visibility: 10mi
Dew Point: 40°   Wind: 7mph
Humidity: 85%   Direction: 310°NW
Pressure: 30.16"   Gusts: NA
Location:  37.41°N, 81.39°W
Report Text: KBLF 222152Z AUTO 31006KT 10SM BKN007 OVC013 07/04 A3016 RMK AO2 CIG 005V010 SLP214 T00670044
Loading
Personal Weather Stations






























Interactive Weather Map
Tropical Storm Tracking
New forecast layout! Learn more

10-Day Weather Forecast

Advertisements
Track Severe Weather on mobile